To NAV CANADA Home Page Login to a new session Search on AWWS site Disclaimer Vers la page française équivalente Tips FAQ What's new on the site To the Forecasts and Observations / NOTAM section To "File a Flight Plan" website Publications and other links Update of the User's profile FIC Telephone Numbers My Weather Data Folder Route Weather Data Regional Weather Data Local Weather Data To the Forecasts and Observations / NOTAM section
Request Generated 04/24/2019 at 16:01:14 UTC . Weather information available at that time is displayed.

METAR/TAF

ST. JOHN'S INTL/NL    

METAR CYYT 241600Z 10018G26KT 1/4SM R11/1800FT/N R16/2000V4000FT/D -FZRA FZFG VV003 M01/M01 A2980 RMK FG8 SLP099=
SPECI CYYT 241554Z 09019G27KT 1/4SM R11/1600V2200FT/N R16/3000V6000FT/D -FZRA FZFG VV003 M01/M01 A2979 RMK FG8 PRESFR SLP098=
SPECI CYYT 241549Z 09016G27KT 1/2SM R11/2000FT/N R16/5500VP6000FT/D -FZRA FZFG VV003 M01/M01 A2981 RMK FG8 PRESFR SLP103=
METAR CYYT 241500Z 10016G26KT 1 3/4SM R11/4500FT/N R16/3000V4500FT/U -FZRA BR OVC004 M01/M01 A2985 RMK ST8 SLP118=
METAR CYYT 241400Z 10018G28KT 2SM R16/5500VP6000FT/U -FZRA BR OVC003 M01/M01 A2990 RMK ST8 SLP134=

TAF AMD CYYT 241508Z 2415/2512 11018G28KT 11/2SM -FZRA BR OVC003
TEMPO 2415/2417 4SM -SNPL BR OVC010
FM241700 11015G25KT 3SM -RAPL BR OVC005 TEMPO 2417/2419 1SM -RA
BR OVC010
FM241900 11015G25KT 3/4SM -RA -DZ BR OVC003 PROB30 2419/2423 1SM
-FZRA BR
FM242300 03020G30KT 1/2SM -DZ FG VV002 PROB30 2423/2502 1/2SM
-FZDZ FZFG
FM250200 02017G27KT 1SM -FZDZ BR OVC002
FM251100 07020G30KT 5SM -DZ BR OVC007
RMK NXT FCST BY 241800Z=
Your time UTC time
Weather data provided by Environment Canada and NAV CANADA